Aviation Digital Data Service (ADDS)

Output produced by TAFs form (0533 UTC 11 December 2017)
found at http://www.aviationweather.gov/adds/tafs/
 
METAR text: KBHM 110453Z 00000KT 10SM CLR 03/M02 A3029 RMK AO2 SLP258 T00331022
Conditions at: KBHM (BIRMINGHAM , AL, US) observed 0453 UTC 11 December 2017
Temperature: 3.3°C (38°F)
Dewpoint: -2.2°C (28°F) [RH = 67%]
Pressure (altimeter): 30.29 inches Hg (1025.8 mb)
[Sea-level pressure: 1025.8 mb]
Winds: calm
Visibility: 10 or more miles (16+ km)
Ceiling: at least 12,000 feet AGL
Clouds: sky clear below 12,000 feet AGL
Weather: no significant weather observed at this time

Forecast for: KBHM (BIRMINGHAM , AL, US)
Text: KBHM 110520Z 1106/1206 22003KT P6SM SKC
Forecast period: 0600 to 1600 UTC 11 December 2017
Forecast type: FROM: standard forecast or significant change
Winds: from the SW (220 degrees) at 3 MPH (3 knots; 1.6 m/s)
Visibility: 6 or more miles (10+ km)
Clouds: clear skies
Weather: no significant weather forecast for this period
Text: FM111600 22007KT P6SM SKC
Forecast period: 1600 UTC 11 December 2017 to 0600 UTC 12 December 2017
Forecast type: FROM: standard forecast or significant change
Winds: from the SW (220 degrees) at 8 MPH (7 knots; 3.6 m/s)
Visibility: 6 or more miles (10+ km)
Clouds: clear skies
Weather: no significant weather forecast for this period